• Join FlightAware (Why Join?)
  • Login
  • US Flag 
03:22AM EDT


 

Airport Tracker/Info


-or-


 

Live Flight TrackerFlight Track Log ✈ UAL4108 ✈ 19-Apr-2013 ✈ KLIT - KIAH

Flight Track Log - Related Links

Times and Time Zones

All times are in EDT time to prevent confusion due to time zone crossing. See the UAL4108 flight status page for this flight to view local times or setup timezone preferences in your user account.

Time Position Orientation Groundspeed Altitude Reporting Facility
EDT Latitude Longitude Course Direction KTS MPH feet Rate Location/Type
08:45PM 34.7178 -92.2469 202° Southwest 168 193 800  Level Memphis Center
08:45PM 34.6925 -92.2542 193° South 183 211 2,200 2,400 Climbing Memphis Center
08:46PM 34.6281 -92.2500 177° South 247 284 4,700 2,520 Climbing Memphis Center
08:48PM 34.5008 -92.2447 178° South 286 329 8,800 2,640 Climbing Memphis Center
08:49PM 34.3381 -92.4968 193° South  Level Estimated
08:49PM 34.4133 -92.2378 176° South 297 342 11,600  Level Memphis Center
08:50PM 34.2597 -92.5509 202° Southwest  Level Estimated
08:50PM 34.3211 -92.2483 185° South 321 369 13,300  Level Memphis Center
08:51PM 34.2186 -92.2686 189° South 353 406 15,000 1,800 Climbing Memphis Center
08:52PM 34.1142 -92.2864 188° South 371 427 16,900 1,800 Climbing Memphis Center
08:53PM 34.0094 -92.3092 190° South 378 435 18,700 1,800 Climbing Memphis Center
08:54PM 33.9089 -92.3294 190° South 378 435 20,600 1,620 Climbing Memphis Center
08:55PM 33.7981 -92.3469 187° South 383 441 22,000 660 Climbing Memphis Center
08:56PM 33.6850 -92.3694 189° South 406 467 22,000  Level Memphis Center
08:57PM 33.5594 -92.3908 188° South 407 468 22,000  Level Fort Worth Center
08:58PM 33.4372 -92.4103 188° South 428 493 22,000  Level Fort Worth Center
08:59PM 33.3172 -92.4369 191° South 434 499 22,000  Level Fort Worth Center
09:00PM 33.1989 -92.4536 187° South 440 506 22,000  Level Fort Worth Center
09:01PM 33.0808 -92.4775 190° South 440 506 22,000  Level Fort Worth Center
09:02PM 32.9669 -92.4986 189° South 433 498 22,000  Level Fort Worth Center
09:03PM 32.8467 -92.5178 188° South 433 498 22,000  Level Fort Worth Center
09:04PM 32.7328 -92.5386 189° South 423 487 22,000  Level Fort Worth Center
09:05PM 32.6186 -92.5597 189° South 423 487 22,000  Level Fort Worth Center
09:07PM 32.4103 -92.5989 189° South 412 474 22,000  Level Houston Center
09:08PM 32.2964 -92.6183 188° South 412 474 22,000  Level Houston Center
09:09PM 32.1814 -92.6397 189° South 415 478 22,000  Level Houston Center
09:10PM 32.0472 -92.6628 188° South 407 468 22,000  Level Houston Center
09:11PM 31.9444 -92.7078 200° South 396 456 22,000  Level Houston Center
09:12PM 31.8619 -92.7844 218° Southwest 378 435 22,000  Level Houston Center
09:13PM 31.7814 -92.8628 220° Southwest 377 434 22,000  Level Houston Center
09:14PM 31.7006 -92.9408 219° Southwest 376 433 22,000  Level Houston Center
09:15PM 31.6206 -93.0183 220° Southwest 377 434 22,000  Level Houston Center
09:16PM 31.5397 -93.0958 219° Southwest 376 433 22,000  Level Houston Center
09:17PM 31.4414 -93.1911 220° Southwest 383 441 22,000  Level Houston Center
09:18PM 31.3606 -93.2689 219° Southwest 380 437 22,000  Level Houston Center
09:19PM 31.2781 -93.3478 219° Southwest 382 440 22,000  Level Houston Center
09:20PM 31.1906 -93.4289 218° Southwest 382 440 22,000  Level Houston Center
09:21PM 31.1097 -93.5075 220° Southwest 381 438 22,000  Level Houston Center
09:22PM 31.0269 -93.5839 218° Southwest 381 438 22,000  Level Houston Center
09:23PM 30.9464 -93.6619 220° Southwest 378 435 22,000  Level Houston Center
09:24PM 30.8647 -93.7378 219° Southwest 377 434 22,000  Level Houston Center
09:25PM 30.7839 -93.8147 219° Southwest 378 435 22,000 -720 Level Houston Center
09:26PM 30.7031 -93.8922 220° Southwest 379 436 20,600 -1,740 Descending Houston Center
09:27PM 30.6058 -93.9831 219° Southwest 377 434 18,500 -1,800 Descending Houston Center
09:28PM 30.5269 -94.0564 219° Southwest 368 423 17,000 -1,560 Descending Houston Center
09:29PM 30.4750 -94.1047 219° Southwest 359 413 15,900 -1,680 Descending Houston Center
09:29PM 30.4500 -94.1289 220° Southwest 361 415 15,300 -1,860 Descending Houston Center
09:30PM 30.4192 -94.1561 217° Southwest 354 407 14,600 -1,680 Descending Houston Center
09:30PM 30.3739 -94.1986 219° Southwest 355 409 13,600 -1,680 Descending Houston Center
09:31PM 30.3406 -94.2294 219° Southwest 346 398 12,900 -1,620 Descending Houston Center
09:31PM 30.3011 -94.2658 219° Southwest 343 395 12,000 -900 Descending Houston Center
09:32PM 30.2672 -94.2972 219° Southwest 326 375 12,000  Level Houston Center
09:32PM 30.2314 -94.3314 219° Southwest 331 381 12,000  Level Houston Center
09:33PM 30.2028 -94.3664 227° Southwest 321 369 12,000 -420 Level Houston Center
09:33PM 30.1831 -94.4114 243° Southwest 308 354 11,600 -1,020 Descending Houston Center
09:34PM 30.1656 -94.4583 247° West 304 350 11,000 -1,320 Descending Houston Center
09:34PM 30.1467 -94.5053 245° Southwest 301 346 10,300 -1,500 Descending Houston Center
09:35PM 30.1317 -94.5425 245° Southwest 269 310 9,500 -1,800 Descending Houston Center
09:35PM 30.1172 -94.5869 249° West 283 326 8,500 -1,380 Descending Houston Center
09:36PM 30.1017 -94.6236 244° Southwest 272 313 8,100 -540 Descending Houston Center
09:36PM 30.0886 -94.6678 251° West 275 316 8,000 -120 Descending Houston Center
09:37PM 30.0786 -94.7111 255° West 279 321 8,000  Level Houston Center
09:38PM 30.0633 -94.7903 257° West 279 321 8,000 -300 Level Houston Center
09:38PM 30.0517 -94.8514 258° West 258 297 7,500 -960 Descending Houston Center
09:39PM 30.0369 -94.9242 257° West 237 273 6,300 -1,200 Descending Houston Center
09:41PM 30.0231 -94.9953 257° West 230 265 5,100 -1,320 Descending Houston Center
09:41PM 30.0158 -95.0208 252° West 229 264 4,600 -1,080 Descending Houston Center
09:42PM 30.0081 -95.0658 259° West 228 262 4,000 -720 Descending Houston Center
09:42PM 30.0014 -95.0903 253° West 218 251 3,900 -420 Descending Houston Center
09:43PM 29.9958 -95.1247 259° West 194 223 3,600 -720 Descending Houston Center
09:44PM 29.9933 -95.1761 267° West 164 189 2,700 -1,020 Descending Houston Center
09:44PM 29.9922 -95.1975 267° West 168 193 2,300 -1,500 Descending Houston Center